sensor_id;sensor_type;location;lat;lon;timestamp;pressure;altitude;pressure_sealevel;temperature;humidity
15314;BME280;7757;52.626;4.746;2023-07-31T00:01:10;100685.34;;;21.88;69.74
15314;BME280;7757;52.626;4.746;2023-07-31T00:03:35;100691.13;;;21.97;69.07
15314;BME280;7757;52.626;4.746;2023-07-31T00:06:04;100692.47;;;21.89;70.18
15314;BME280;7757;52.626;4.746;2023-07-31T00:08:29;100697.28;;;21.82;69.82
15314;BME280;7757;52.626;4.746;2023-07-31T00:10:54;100688.91;;;21.89;69.51
15314;BME280;7757;52.626;4.746;2023-07-31T00:13:20;100691.09;;;21.92;69.42
15314;BME280;7757;52.626;4.746;2023-07-31T00:15:45;100681.56;;;21.89;69.38
15314;BME280;7757;52.626;4.746;2023-07-31T00:18:10;100687.00;;;21.89;69.45
15314;BME280;7757;52.626;4.746;2023-07-31T00:20:36;100686.44;;;21.87;69.88
15314;BME280;7757;52.626;4.746;2023-07-31T00:23:02;100683.75;;;21.92;68.91
15314;BME280;7757;52.626;4.746;2023-07-31T00:25:28;100680.75;;;21.89;69.94
15314;BME280;7757;52.626;4.746;2023-07-31T00:27:53;100676.13;;;21.89;69.83
15314;BME280;7757;52.626;4.746;2023-07-31T00:30:18;100676.06;;;21.84;69.90
15314;BME280;7757;52.626;4.746;2023-07-31T00:32:45;100674.69;;;21.82;70.03
15314;BME280;7757;52.626;4.746;2023-07-31T00:35:12;100671.75;;;21.88;69.96
15314;BME280;7757;52.626;4.746;2023-07-31T00:37:38;100668.78;;;21.90;69.85
15314;BME280;7757;52.626;4.746;2023-07-31T00:40:04;100668.34;;;21.71;70.32
15314;BME280;7757;52.626;4.746;2023-07-31T00:42:31;100665.47;;;21.88;69.26
15314;BME280;7757;52.626;4.746;2023-07-31T00:44:56;100654.28;;;21.84;69.64
15314;BME280;7757;52.626;4.746;2023-07-31T00:47:22;100652.38;;;21.85;69.67
15314;BME280;7757;52.626;4.746;2023-07-31T00:49:48;100642.03;;;21.82;69.42
15314;BME280;7757;52.626;4.746;2023-07-31T00:52:14;100661.91;;;21.87;69.79
15314;BME280;7757;52.626;4.746;2023-07-31T00:54:40;100655.88;;;21.75;69.81
15314;BME280;7757;52.626;4.746;2023-07-31T00:57:06;100640.25;;;21.60;70.50
15314;BME280;7757;52.626;4.746;2023-07-31T00:59:33;100653.16;;;21.80;70.23
15314;BME280;7757;52.626;4.746;2023-07-31T01:01:59;100642.81;;;21.82;70.09
15314;BME280;7757;52.626;4.746;2023-07-31T01:04:25;100637.13;;;21.84;69.58
15314;BME280;7757;52.626;4.746;2023-07-31T01:07:06;100643.59;;;21.73;70.48
15314;BME280;7757;52.626;4.746;2023-07-31T01:09:43;100636.03;;;21.85;70.37
15314;BME280;7757;52.626;4.746;2023-07-31T01:12:14;100640.44;;;21.91;69.38
15314;BME280;7757;52.626;4.746;2023-07-31T01:14:39;100631.97;;;21.87;69.31
15314;BME280;7757;52.626;4.746;2023-07-31T01:17:05;100629.47;;;21.81;69.97
15314;BME280;7757;52.626;4.746;2023-07-31T01:19:31;100623.50;;;21.84;70.35
15314;BME280;7757;52.626;4.746;2023-07-31T01:28:02;100637.66;;;21.81;70.39
15314;BME280;7757;52.626;4.746;2023-07-31T01:30:32;100610.66;;;21.74;70.41
15314;BME280;7757;52.626;4.746;2023-07-31T01:33:03;100619.41;;;21.81;70.34
15314;BME280;7757;52.626;4.746;2023-07-31T01:35:34;100621.56;;;21.79;70.04
15314;BME280;7757;52.626;4.746;2023-07-31T01:38:00;100616.41;;;21.78;70.39
15314;BME280;7757;52.626;4.746;2023-07-31T01:40:25;100615.84;;;21.76;69.89
15314;BME280;7757;52.626;4.746;2023-07-31T01:42:50;100608.00;;;21.84;70.00
15314;BME280;7757;52.626;4.746;2023-07-31T01:45:16;100596.81;;;21.81;70.04
15314;BME280;7757;52.626;4.746;2023-07-31T01:47:41;100594.31;;;21.74;70.56
15314;BME280;7757;52.626;4.746;2023-07-31T01:50:07;100597.88;;;21.80;70.43
15314;BME280;7757;52.626;4.746;2023-07-31T01:52:32;100599.78;;;21.79;69.82
15314;BME280;7757;52.626;4.746;2023-07-31T01:54:58;100593.78;;;21.77;70.28
15314;BME280;7757;52.626;4.746;2023-07-31T01:57:24;100589.41;;;21.76;69.80
15314;BME280;7757;52.626;4.746;2023-07-31T01:59:51;100590.25;;;21.77;70.28
15314;BME280;7757;52.626;4.746;2023-07-31T02:02:19;100590.81;;;21.79;70.24
15314;BME280;7757;52.626;4.746;2023-07-31T02:04:45;100570.25;;;21.51;70.31
15314;BME280;7757;52.626;4.746;2023-07-31T02:07:10;100574.44;;;21.68;70.39
15314;BME280;7757;52.626;4.746;2023-07-31T02:09:37;100567.91;;;21.69;69.96
15314;BME280;7757;52.626;4.746;2023-07-31T02:12:03;100564.63;;;21.67;70.10
15314;BME280;7757;52.626;4.746;2023-07-31T02:14:29;100554.81;;;21.66;70.17
15314;BME280;7757;52.626;4.746;2023-07-31T02:16:55;100561.63;;;21.69;69.92
15314;BME280;7757;52.626;4.746;2023-07-31T02:19:20;100556.94;;;21.54;70.67
15314;BME280;7757;52.626;4.746;2023-07-31T02:21:46;100557.28;;;21.73;70.78
15314;BME280;7757;52.626;4.746;2023-07-31T02:24:11;100561.94;;;21.73;69.82
15314;BME280;7757;52.626;4.746;2023-07-31T02:26:36;100551.28;;;21.61;70.25
15314;BME280;7757;52.626;4.746;2023-07-31T02:29:02;100553.72;;;21.67;70.13
15314;BME280;7757;52.626;4.746;2023-07-31T02:31:29;100558.09;;;21.68;70.40
15314;BME280;7757;52.626;4.746;2023-07-31T02:33:54;100553.47;;;21.69;70.42
15314;BME280;7757;52.626;4.746;2023-07-31T02:36:20;100552.63;;;21.63;70.53
15314;BME280;7757;52.626;4.746;2023-07-31T02:38:45;100555.63;;;21.67;70.61
15314;BME280;7757;52.626;4.746;2023-07-31T02:41:10;100514.72;;;21.47;69.90
15314;BME280;7757;52.626;4.746;2023-07-31T02:43:36;100550.75;;;21.64;70.43
15314;BME280;7757;52.626;4.746;2023-07-31T02:46:01;100548.03;;;21.69;69.71
15314;BME280;7757;52.626;4.746;2023-07-31T02:48:26;100531.84;;;21.37;70.53
15314;BME280;7757;52.626;4.746;2023-07-31T02:50:53;100553.41;;;21.59;70.35
15314;BME280;7757;52.626;4.746;2023-07-31T02:53:20;100549.09;;;21.63;70.46
15314;BME280;7757;52.626;4.746;2023-07-31T02:55:45;100552.09;;;21.66;70.25
15314;BME280;7757;52.626;4.746;2023-07-31T02:58:10;100530.78;;;21.43;70.54
15314;BME280;7757;52.626;4.746;2023-07-31T03:00:36;100543.88;;;21.51;70.25
15314;BME280;7757;52.626;4.746;2023-07-31T03:03:01;100545.22;;;21.49;70.55
15314;BME280;7757;52.626;4.746;2023-07-31T03:05:26;100545.97;;;21.34;71.06
15314;BME280;7757;52.626;4.746;2023-07-31T03:07:52;100531.63;;;21.54;70.98
15314;BME280;7757;52.626;4.746;2023-07-31T03:10:17;100539.28;;;21.62;70.65
15314;BME280;7757;52.626;4.746;2023-07-31T03:12:46;100540.63;;;21.64;70.27
15314;BME280;7757;52.626;4.746;2023-07-31T03:15:12;100539.34;;;21.72;70.17
15314;BME280;7757;52.626;4.746;2023-07-31T03:17:37;100537.66;;;21.66;70.33
15314;BME280;7757;52.626;4.746;2023-07-31T03:20:03;100539.59;;;21.70;69.58
15314;BME280;7757;52.626;4.746;2023-07-31T03:22:29;100530.59;;;21.70;70.03
15314;BME280;7757;52.626;4.746;2023-07-31T03:24:54;100515.56;;;21.52;70.17
15314;BME280;7757;52.626;4.746;2023-07-31T03:27:22;100530.84;;;21.63;70.19
15314;BME280;7757;52.626;4.746;2023-07-31T03:29:47;100529.22;;;21.62;70.20
15314;BME280;7757;52.626;4.746;2023-07-31T03:32:14;100531.41;;;21.65;70.42
15314;BME280;7757;52.626;4.746;2023-07-31T03:34:40;100524.31;;;21.59;69.98
15314;BME280;7757;52.626;4.746;2023-07-31T03:37:05;100523.44;;;21.49;70.61
15314;BME280;7757;52.626;4.746;2023-07-31T03:39:32;100522.94;;;21.57;70.65
15314;BME280;7757;52.626;4.746;2023-07-31T03:41:57;100517.25;;;21.63;70.24
15314;BME280;7757;52.626;4.746;2023-07-31T03:44:23;100510.69;;;21.64;69.74
15314;BME280;7757;52.626;4.746;2023-07-31T03:46:48;100505.50;;;21.53;70.25
15314;BME280;7757;52.626;4.746;2023-07-31T03:49:14;100511.22;;;21.61;70.51
15314;BME280;7757;52.626;4.746;2023-07-31T03:51:39;100486.94;;;21.40;70.57
15314;BME280;7757;52.626;4.746;2023-07-31T03:54:04;100496.94;;;21.29;70.98
15314;BME280;7757;52.626;4.746;2023-07-31T03:56:30;100499.50;;;21.56;70.80
15314;BME280;7757;52.626;4.746;2023-07-31T03:58:55;100496.84;;;21.61;70.04
15314;BME280;7757;52.626;4.746;2023-07-31T04:01:21;100496.56;;;21.67;70.22
15314;BME280;7757;52.626;4.746;2023-07-31T04:03:48;100503.59;;;21.58;70.58
15314;BME280;7757;52.626;4.746;2023-07-31T04:06:14;100498.44;;;21.52;70.39
15314;BME280;7757;52.626;4.746;2023-07-31T04:08:43;100437.31;;;21.18;70.10
15314;BME280;7757;52.626;4.746;2023-07-31T04:11:09;100492.44;;;21.55;69.89
15314;BME280;7757;52.626;4.746;2023-07-31T04:13:34;100419.66;;;21.20;69.72
15314;BME280;7757;52.626;4.746;2023-07-31T04:15:59;100485.13;;;21.60;69.93
15314;BME280;7757;52.626;4.746;2023-07-31T04:18:25;100472.00;;;21.52;70.05
15314;BME280;7757;52.626;4.746;2023-07-31T04:20:52;100458.91;;;21.39;70.57
15314;BME280;7757;52.626;4.746;2023-07-31T04:23:18;100477.50;;;21.57;70.23
15314;BME280;7757;52.626;4.746;2023-07-31T04:25:44;100474.19;;;21.50;70.43
15314;BME280;7757;52.626;4.746;2023-07-31T04:28:09;100466.31;;;21.49;70.23
15314;BME280;7757;52.626;4.746;2023-07-31T04:30:35;100474.19;;;21.55;70.29
15314;BME280;7757;52.626;4.746;2023-07-31T04:33:01;100474.47;;;21.59;70.41
15314;BME280;7757;52.626;4.746;2023-07-31T04:35:27;100475.84;;;21.51;70.43
15314;BME280;7757;52.626;4.746;2023-07-31T04:37:53;100470.94;;;21.58;70.51
15314;BME280;7757;52.626;4.746;2023-07-31T04:40:18;100465.97;;;21.35;71.11
15314;BME280;7757;52.626;4.746;2023-07-31T04:42:44;100466.31;;;21.54;69.99
15314;BME280;7757;52.626;4.746;2023-07-31T04:45:09;100466.03;;;21.50;70.26
15314;BME280;7757;52.626;4.746;2023-07-31T04:47:36;100470.09;;;21.53;70.26
15314;BME280;7757;52.626;4.746;2023-07-31T04:50:02;100455.44;;;21.54;70.55
15314;BME280;7757;52.626;4.746;2023-07-31T04:52:28;100401.13;;;21.12;70.88
15314;BME280;7757;52.626;4.746;2023-07-31T04:54:53;100455.16;;;21.55;70.92
15314;BME280;7757;52.626;4.746;2023-07-31T04:57:18;100455.69;;;21.52;70.22
15314;BME280;7757;52.626;4.746;2023-07-31T04:59:44;100462.22;;;21.51;70.97
15314;BME280;7757;52.626;4.746;2023-07-31T05:02:11;100456.47;;;21.43;70.78
15314;BME280;7757;52.626;4.746;2023-07-31T05:04:38;100421.34;;;21.36;70.94
15314;BME280;7757;52.626;4.746;2023-07-31T05:07:04;100445.84;;;21.41;70.80
15314;BME280;7757;52.626;4.746;2023-07-31T05:09:29;100411.00;;;21.33;70.65
15314;BME280;7757;52.626;4.746;2023-07-31T05:11:55;100431.47;;;21.46;70.46
15314;BME280;7757;52.626;4.746;2023-07-31T05:14:20;100418.09;;;21.44;70.84
15314;BME280;7757;52.626;4.746;2023-07-31T05:16:45;100428.47;;;21.47;70.24
15314;BME280;7757;52.626;4.746;2023-07-31T05:19:12;100422.47;;;21.55;70.38
15314;BME280;7757;52.626;4.746;2023-07-31T05:21:42;100422.22;;;21.57;70.60
15314;BME280;7757;52.626;4.746;2023-07-31T05:24:07;100411.28;;;21.37;71.76
15314;BME280;7757;52.626;4.746;2023-07-31T05:26:32;100417.28;;;21.34;71.40
15314;BME280;7757;52.626;4.746;2023-07-31T05:28:58;100404.72;;;21.23;71.73
15314;BME280;7757;52.626;4.746;2023-07-31T05:31:25;100406.09;;;21.35;71.44
15314;BME280;7757;52.626;4.746;2023-07-31T05:33:51;100402.00;;;21.23;72.08
15314;BME280;7757;52.626;4.746;2023-07-31T05:36:18;100407.44;;;21.28;71.52
15314;BME280;7757;52.626;4.746;2023-07-31T05:38:43;100393.16;;;21.05;72.75
15314;BME280;7757;52.626;4.746;2023-07-31T05:41:12;100403.31;;;21.15;72.58
15314;BME280;7757;52.626;4.746;2023-07-31T05:43:38;100392.72;;;21.19;72.14
15314;BME280;7757;52.626;4.746;2023-07-31T05:46:03;100404.50;;;21.34;72.06
15314;BME280;7757;52.626;4.746;2023-07-31T05:48:28;100392.19;;;21.22;72.21
15314;BME280;7757;52.626;4.746;2023-07-31T05:50:55;100396.28;;;21.29;71.55
15314;BME280;7757;52.626;4.746;2023-07-31T05:53:21;100387.28;;;21.24;72.14
15314;BME280;7757;52.626;4.746;2023-07-31T05:55:46;100396.50;;;21.12;72.47
15314;BME280;7757;52.626;4.746;2023-07-31T05:58:13;100383.25;;;21.31;72.33
15314;BME280;7757;52.626;4.746;2023-07-31T06:00:40;100397.09;;;21.30;72.12
15314;BME280;7757;52.626;4.746;2023-07-31T06:03:06;100394.91;;;21.17;72.41
15314;BME280;7757;52.626;4.746;2023-07-31T06:05:31;100384.56;;;21.24;71.92
15314;BME280;7757;52.626;4.746;2023-07-31T06:07:57;100387.81;;;21.10;73.11
15314;BME280;7757;52.626;4.746;2023-07-31T06:10:22;100357.00;;;21.00;73.56
15314;BME280;7757;52.626;4.746;2023-07-31T06:12:48;100380.91;;;20.98;75.47
15314;BME280;7757;52.626;4.746;2023-07-31T06:15:13;100376.16;;;21.25;73.76
15314;BME280;7757;52.626;4.746;2023-07-31T06:17:38;100372.81;;;21.08;74.99
15314;BME280;7757;52.626;4.746;2023-07-31T06:20:06;100370.97;;;21.29;74.14
15314;BME280;7757;52.626;4.746;2023-07-31T06:22:33;100362.81;;;21.19;75.05
15314;BME280;7757;52.626;4.746;2023-07-31T06:25:00;100372.38;;;21.46;73.36
15314;BME280;7757;52.626;4.746;2023-07-31T06:27:26;100357.66;;;21.22;74.43
15314;BME280;7757;52.626;4.746;2023-07-31T06:29:52;100347.59;;;21.23;74.11
15314;BME280;7757;52.626;4.746;2023-07-31T06:32:17;100305.63;;;21.03;74.75
15314;BME280;7757;52.626;4.746;2023-07-31T06:34:43;100356.81;;;21.17;75.58
15314;BME280;7757;52.626;4.746;2023-07-31T06:37:08;100354.41;;;21.35;75.28
15314;BME280;7757;52.626;4.746;2023-07-31T06:39:34;100354.16;;;21.47;73.94
15314;BME280;7757;52.626;4.746;2023-07-31T06:42:04;100321.19;;;21.23;74.76
15314;BME280;7757;52.626;4.746;2023-07-31T06:44:29;100318.75;;;21.27;74.07
15314;BME280;7757;52.626;4.746;2023-07-31T06:46:54;100339.19;;;21.39;75.06
15314;BME280;7757;52.626;4.746;2023-07-31T06:49:20;100348.16;;;21.35;74.93
15314;BME280;7757;52.626;4.746;2023-07-31T06:51:45;100315.50;;;21.25;74.96
15314;BME280;7757;52.626;4.746;2023-07-31T06:54:10;100332.94;;;21.44;74.02
15314;BME280;7757;52.626;4.746;2023-07-31T06:56:36;100331.56;;;21.36;75.04
15314;BME280;7757;52.626;4.746;2023-07-31T06:59:03;100344.91;;;21.38;75.81
15314;BME280;7757;52.626;4.746;2023-07-31T07:01:28;100318.50;;;21.33;75.28
15314;BME280;7757;52.626;4.746;2023-07-31T07:03:54;100345.47;;;21.50;75.27
15314;BME280;7757;52.626;4.746;2023-07-31T07:06:19;100334.03;;;21.43;75.14
15314;BME280;7757;52.626;4.746;2023-07-31T07:08:45;100315.50;;;21.35;74.89
15314;BME280;7757;52.626;4.746;2023-07-31T07:11:11;100323.41;;;21.36;74.77
15314;BME280;7757;52.626;4.746;2023-07-31T07:13:37;100331.59;;;21.61;74.34
15314;BME280;7757;52.626;4.746;2023-07-31T07:16:03;100303.81;;;21.49;74.66
15314;BME280;7757;52.626;4.746;2023-07-31T07:18:28;100335.09;;;21.27;76.76
15314;BME280;7757;52.626;4.746;2023-07-31T07:20:54;100318.47;;;21.23;75.73
15314;BME280;7757;52.626;4.746;2023-07-31T07:23:21;100308.97;;;21.26;75.96
15314;BME280;7757;52.626;4.746;2023-07-31T07:25:47;100338.13;;;21.55;75.48
15314;BME280;7757;52.626;4.746;2023-07-31T07:28:13;100324.53;;;21.40;75.04
15314;BME280;7757;52.626;4.746;2023-07-31T07:30:39;100309.19;;;21.14;75.86
15314;BME280;7757;52.626;4.746;2023-07-31T07:33:05;100340.88;;;21.60;75.33
15314;BME280;7757;52.626;4.746;2023-07-31T07:35:34;100331.28;;;21.33;76.47
15314;BME280;7757;52.626;4.746;2023-07-31T07:38:00;100326.13;;;21.31;76.00
15314;BME280;7757;52.626;4.746;2023-07-31T07:40:26;100345.22;;;21.66;74.33
15314;BME280;7757;52.626;4.746;2023-07-31T07:42:52;100308.44;;;21.44;72.40
15314;BME280;7757;52.626;4.746;2023-07-31T07:45:17;100304.94;;;21.53;72.14
15314;BME280;7757;52.626;4.746;2023-07-31T07:47:42;100326.72;;;21.68;72.33
15314;BME280;7757;52.626;4.746;2023-07-31T07:50:08;100323.72;;;21.70;71.78
15314;BME280;7757;52.626;4.746;2023-07-31T07:52:35;100330.00;;;21.76;71.62
15314;BME280;7757;52.626;4.746;2023-07-31T07:55:00;100289.41;;;21.44;72.43
15314;BME280;7757;52.626;4.746;2023-07-31T07:57:26;100322.34;;;21.83;71.93
15314;BME280;7757;52.626;4.746;2023-07-31T07:59:52;100335.44;;;21.81;72.58
15314;BME280;7757;52.626;4.746;2023-07-31T08:02:17;100323.47;;;21.92;71.90
15314;BME280;7757;52.626;4.746;2023-07-31T08:04:43;100304.09;;;21.73;71.91
15314;BME280;7757;52.626;4.746;2023-07-31T08:07:11;100318.00;;;21.77;72.22
15314;BME280;7757;52.626;4.746;2023-07-31T08:09:40;100321.28;;;21.79;72.42
15314;BME280;7757;52.626;4.746;2023-07-31T08:12:06;100314.47;;;21.76;72.54
15314;BME280;7757;52.626;4.746;2023-07-31T08:14:33;100282.06;;;21.80;72.31
15314;BME280;7757;52.626;4.746;2023-07-31T08:16:58;100303.56;;;21.71;73.41
15314;BME280;7757;52.626;4.746;2023-07-31T08:19:24;100291.34;;;21.68;72.95
15314;BME280;7757;52.626;4.746;2023-07-31T08:21:49;100299.53;;;21.89;71.91
15314;BME280;7757;52.626;4.746;2023-07-31T08:24:15;100310.69;;;21.97;72.31
15314;BME280;7757;52.626;4.746;2023-07-31T08:26:40;100316.91;;;21.83;72.66
15314;BME280;7757;52.626;4.746;2023-07-31T08:29:06;100272.81;;;21.70;71.91
15314;BME280;7757;52.626;4.746;2023-07-31T08:31:31;100312.06;;;21.90;71.54
15314;BME280;7757;52.626;4.746;2023-07-31T08:33:57;100300.59;;;21.78;72.39
15314;BME280;7757;52.626;4.746;2023-07-31T08:36:22;100291.88;;;21.76;72.06
15314;BME280;7757;52.626;4.746;2023-07-31T08:38:48;100302.22;;;21.74;72.60
15314;BME280;7757;52.626;4.746;2023-07-31T08:41:13;100305.78;;;21.84;72.15
15314;BME280;7757;52.626;4.746;2023-07-31T08:43:39;100275.81;;;21.69;72.64
15314;BME280;7757;52.626;4.746;2023-07-31T08:46:04;100299.22;;;21.75;73.12
15314;BME280;7757;52.626;4.746;2023-07-31T08:48:31;100297.34;;;21.76;73.00
15314;BME280;7757;52.626;4.746;2023-07-31T08:50:56;100303.03;;;21.79;72.55
15314;BME280;7757;52.626;4.746;2023-07-31T08:53:22;100310.91;;;21.70;73.57
15314;BME280;7757;52.626;4.746;2023-07-31T08:55:50;100304.41;;;21.66;73.94
15314;BME280;7757;52.626;4.746;2023-07-31T08:58:18;100297.31;;;21.86;72.49
15314;BME280;7757;52.626;4.746;2023-07-31T09:00:46;100302.75;;;21.81;72.97
15314;BME280;7757;52.626;4.746;2023-07-31T09:03:18;100292.13;;;21.79;72.64
15314;BME280;7757;52.626;4.746;2023-07-31T09:05:46;100304.69;;;21.75;73.04
15314;BME280;7757;52.626;4.746;2023-07-31T09:08:21;100301.69;;;21.72;73.94
15314;BME280;7757;52.626;4.746;2023-07-31T09:10:48;100300.59;;;21.57;74.85
15314;BME280;7757;52.626;4.746;2023-07-31T09:13:16;100296.78;;;21.79;73.27
15314;BME280;7757;52.626;4.746;2023-07-31T09:15:45;100303.56;;;21.56;75.20
15314;BME280;7757;52.626;4.746;2023-07-31T09:18:11;100293.22;;;21.48;75.42
15314;BME280;7757;52.626;4.746;2023-07-31T09:20:37;100295.13;;;21.47;75.86
15314;BME280;7757;52.626;4.746;2023-07-31T09:23:10;100288.34;;;21.65;74.03
15314;BME280;7757;52.626;4.746;2023-07-31T09:25:36;100294.88;;;21.69;73.72
15314;BME280;7757;52.626;4.746;2023-07-31T09:28:04;100283.97;;;21.69;73.31
15314;BME280;7757;52.626;4.746;2023-07-31T09:30:44;100295.69;;;21.69;73.92
15314;BME280;7757;52.626;4.746;2023-07-31T09:33:11;100267.09;;;21.67;73.29
15314;BME280;7757;52.626;4.746;2023-07-31T09:35:38;100295.13;;;21.83;72.48
15314;BME280;7757;52.626;4.746;2023-07-31T09:38:08;100289.72;;;21.73;72.93
15314;BME280;7757;52.626;4.746;2023-07-31T09:40:36;100298.94;;;21.72;73.36
15314;BME280;7757;52.626;4.746;2023-07-31T09:43:07;100266.03;;;21.43;74.61
15314;BME280;7757;52.626;4.746;2023-07-31T09:45:36;100252.41;;;21.48;73.58
15314;BME280;7757;52.626;4.746;2023-07-31T09:48:02;100232.25;;;21.24;74.87
15314;BME280;7757;52.626;4.746;2023-07-31T09:50:29;100293.25;;;21.63;73.81
15314;BME280;7757;52.626;4.746;2023-07-31T09:52:57;100296.22;;;21.72;73.57
15314;BME280;7757;52.626;4.746;2023-07-31T09:55:24;100289.16;;;21.76;73.18
15314;BME280;7757;52.626;4.746;2023-07-31T09:57:55;100285.88;;;21.58;73.82
15314;BME280;7757;52.626;4.746;2023-07-31T10:00:21;100283.69;;;21.70;73.92
15314;BME280;7757;52.626;4.746;2023-07-31T10:02:50;100280.97;;;21.70;73.19
15314;BME280;7757;52.626;4.746;2023-07-31T10:05:17;100286.72;;;21.64;74.21
15314;BME280;7757;52.626;4.746;2023-07-31T10:08:10;100287.00;;;21.73;73.74
15314;BME280;7757;52.626;4.746;2023-07-31T10:10:41;100294.59;;;21.76;72.85
15314;BME280;7757;52.626;4.746;2023-07-31T10:13:08;100283.97;;;21.74;73.65
15314;BME280;7757;52.626;4.746;2023-07-31T10:15:34;100280.44;;;21.68;73.97
15314;BME280;7757;52.626;4.746;2023-07-31T10:18:01;100262.50;;;21.57;73.88
15314;BME280;7757;52.626;4.746;2023-07-31T10:20:27;100286.97;;;21.88;72.98
15314;BME280;7757;52.626;4.746;2023-07-31T10:22:55;100289.97;;;21.66;74.77
15314;BME280;7757;52.626;4.746;2023-07-31T10:25:21;100275.53;;;21.65;73.88
15314;BME280;7757;52.626;4.746;2023-07-31T10:27:49;100295.41;;;21.86;73.41
15314;BME280;7757;52.626;4.746;2023-07-31T10:30:15;100285.34;;;21.87;72.86
15314;BME280;7757;52.626;4.746;2023-07-31T10:32:43;100291.06;;;21.80;72.83
15314;BME280;7757;52.626;4.746;2023-07-31T10:35:11;100294.84;;;21.79;73.88
15314;BME280;7757;52.626;4.746;2023-07-31T10:37:41;100298.44;;;21.95;72.23
15314;BME280;7757;52.626;4.746;2023-07-31T10:40:27;100272.00;;;21.75;72.19
15314;BME280;7757;52.626;4.746;2023-07-31T10:42:54;100299.22;;;21.75;73.61
15314;BME280;7757;52.626;4.746;2023-07-31T10:45:39;100291.06;;;21.80;73.02
15314;BME280;7757;52.626;4.746;2023-07-31T10:48:16;100283.16;;;21.74;73.11
15314;BME280;7757;52.626;4.746;2023-07-31T10:50:49;100274.72;;;21.80;72.11
15314;BME280;7757;52.626;4.746;2023-07-31T10:53:32;100284.28;;;21.93;71.89
15314;BME280;7757;52.626;4.746;2023-07-31T10:56:08;100296.25;;;21.92;71.52
15314;BME280;7757;52.626;4.746;2023-07-31T10:58:34;100293.25;;;22.03;71.42
15314;BME280;7757;52.626;4.746;2023-07-31T11:01:01;100297.06;;;21.97;71.86
15314;BME280;7757;52.626;4.746;2023-07-31T11:03:49;100313.66;;;22.16;71.39
15314;BME280;7757;52.626;4.746;2023-07-31T11:06:17;100320.19;;;22.20;71.03
15314;BME280;7757;52.626;4.746;2023-07-31T11:08:46;100280.72;;;21.92;72.05
15314;BME280;7757;52.626;4.746;2023-07-31T11:11:14;100288.88;;;22.12;71.75
15314;BME280;7757;52.626;4.746;2023-07-31T11:13:41;100301.91;;;22.20;72.23
15314;BME280;7757;52.626;4.746;2023-07-31T11:16:08;100266.56;;;22.00;71.63
15314;BME280;7757;52.626;4.746;2023-07-31T11:18:34;100297.84;;;22.28;71.17
15314;BME280;7757;52.626;4.746;2023-07-31T11:21:00;100292.91;;;22.35;70.89
15314;BME280;7757;52.626;4.746;2023-07-31T11:23:27;100281.97;;;22.45;70.33
15314;BME280;7757;52.626;4.746;2023-07-31T11:25:52;100283.84;;;22.60;70.29
15314;BME280;7757;52.626;4.746;2023-07-31T11:28:18;100262.88;;;22.55;70.35
15314;BME280;7757;52.626;4.746;2023-07-31T11:30:45;100272.94;;;22.65;70.11
15314;BME280;7757;52.626;4.746;2023-07-31T11:33:13;100250.91;;;22.41;70.75
15314;BME280;7757;52.626;4.746;2023-07-31T11:35:44;100280.84;;;22.56;70.05
15314;BME280;7757;52.626;4.746;2023-07-31T11:38:27;100268.56;;;22.64;69.98
15314;BME280;7757;52.626;4.746;2023-07-31T11:40:54;100273.59;;;22.21;72.56
15314;BME280;7757;52.626;4.746;2023-07-31T11:43:20;100270.25;;;22.45;72.44
15314;BME280;7757;52.626;4.746;2023-07-31T11:45:50;100272.66;;;22.56;70.94
15314;BME280;7757;52.626;4.746;2023-07-31T11:50:50;100258.81;;;22.48;70.70
15314;BME280;7757;52.626;4.746;2023-07-31T11:53:20;100294.22;;;22.58;70.91
15314;BME280;7757;52.626;4.746;2023-07-31T11:55:47;100276.78;;;22.49;71.13
15314;BME280;7757;52.626;4.746;2023-07-31T11:58:14;100298.03;;;22.52;71.10
15314;BME280;7757;52.626;4.746;2023-07-31T12:00:40;100289.56;;;22.53;70.93
15314;BME280;7757;52.626;4.746;2023-07-31T12:03:08;100264.84;;;22.40;70.77
15314;BME280;7757;52.626;4.746;2023-07-31T12:05:37;100264.53;;;22.46;70.68
15314;BME280;7757;52.626;4.746;2023-07-31T12:08:14;100287.66;;;22.64;71.09
15314;BME280;7757;52.626;4.746;2023-07-31T12:10:42;100248.53;;;22.14;71.54
15314;BME280;7757;52.626;4.746;2023-07-31T12:13:20;100290.66;;;22.57;70.40
15314;BME280;7757;52.626;4.746;2023-07-31T12:15:46;100265.91;;;22.49;70.09
15314;BME280;7757;52.626;4.746;2023-07-31T12:18:19;100283.84;;;22.70;70.19
15314;BME280;7757;52.626;4.746;2023-07-31T12:20:49;100263.38;;;22.72;69.86
15314;BME280;7757;52.626;4.746;2023-07-31T12:23:20;100220.34;;;22.54;69.50
15314;BME280;7757;52.626;4.746;2023-07-31T12:26:22;100251.63;;;22.82;70.02
15314;BME280;7757;52.626;4.746;2023-07-31T12:28:50;100196.22;;;22.17;70.78
15314;BME280;7757;52.626;4.746;2023-07-31T12:31:18;100265.56;;;22.60;71.31
15314;BME280;7757;52.626;4.746;2023-07-31T12:33:45;100271.03;;;22.65;71.36
15314;BME280;7757;52.626;4.746;2023-07-31T12:36:13;100252.56;;;22.42;71.91
15314;BME280;7757;52.626;4.746;2023-07-31T12:38:45;100240.84;;;22.42;72.68
15314;BME280;7757;52.626;4.746;2023-07-31T12:41:11;100252.75;;;22.56;72.80
15314;BME280;7757;52.626;4.746;2023-07-31T12:43:37;100258.03;;;22.32;73.98
15314;BME280;7757;52.626;4.746;2023-07-31T12:46:03;100249.28;;;22.35;73.77
15314;BME280;7757;52.626;4.746;2023-07-31T12:48:31;100188.38;;;22.06;73.18
15314;BME280;7757;52.626;4.746;2023-07-31T12:50:58;100238.13;;;22.37;73.63
15314;BME280;7757;52.626;4.746;2023-07-31T12:53:23;100204.97;;;22.14;73.65
15314;BME280;7757;52.626;4.746;2023-07-31T12:55:49;100259.66;;;22.43;73.76
15314;BME280;7757;52.626;4.746;2023-07-31T12:58:14;100246.44;;;21.96;75.42
15314;BME280;7757;52.626;4.746;2023-07-31T13:00:42;100282.63;;;22.17;75.33
15314;BME280;7757;52.626;4.746;2023-07-31T13:03:09;100270.34;;;22.09;75.00
15314;BME280;7757;52.626;4.746;2023-07-31T13:05:35;100264.59;;;22.21;74.07
15314;BME280;7757;52.626;4.746;2023-07-31T13:08:01;100260.28;;;22.20;74.66